createdAt,value
2023-08-16T00:01:49.052Z,100.00
2023-08-16T00:04:16.438Z,100.00
2023-08-16T00:06:44.260Z,100.00
2023-08-16T00:09:11.600Z,100.00
2023-08-16T00:11:38.905Z,100.00
2023-08-16T00:14:06.140Z,100.00
2023-08-16T00:16:34.028Z,100.00
2023-08-16T00:19:02.063Z,100.00
2023-08-16T00:21:29.520Z,100.00
2023-08-16T00:23:56.814Z,100.00
2023-08-16T00:26:24.179Z,100.00
2023-08-16T00:28:52.337Z,100.00
2023-08-16T00:31:21.231Z,100.00
2023-08-16T00:33:48.557Z,100.00
2023-08-16T00:36:16.126Z,100.00
2023-08-16T00:38:46.490Z,100.00
2023-08-16T00:41:14.800Z,100.00
2023-08-16T00:43:42.230Z,100.00
2023-08-16T00:46:15.903Z,100.00
2023-08-16T00:48:44.722Z,100.00
2023-08-16T00:51:12.982Z,100.00
2023-08-16T00:53:42.477Z,100.00
2023-08-16T00:56:16.126Z,100.00
2023-08-16T00:58:44.216Z,100.00
2023-08-16T01:01:12.368Z,100.00
2023-08-16T01:03:41.617Z,100.00
2023-08-16T01:06:09.379Z,100.00
2023-08-16T01:08:37.059Z,100.00
2023-08-16T01:11:45.263Z,100.00
2023-08-16T01:14:30.370Z,100.00
2023-08-16T01:16:58.830Z,100.00
2023-08-16T01:19:32.197Z,100.00
2023-08-16T01:22:57.099Z,100.00
2023-08-16T01:25:36.778Z,100.00
2023-08-16T01:28:04.881Z,100.00
2023-08-16T01:30:32.827Z,100.00
2023-08-16T01:33:11.375Z,100.00
2023-08-16T01:35:40.588Z,100.00
2023-08-16T01:38:11.831Z,100.00
2023-08-16T01:41:38.928Z,100.00
2023-08-16T01:44:09.136Z,100.00
2023-08-16T01:46:39.141Z,100.00
2023-08-16T01:49:08.290Z,100.00
2023-08-16T01:51:35.940Z,100.00
2023-08-16T01:54:03.204Z,100.00
2023-08-16T01:56:30.559Z,100.00
2023-08-16T01:58:57.803Z,100.00
2023-08-16T02:01:25.182Z,100.00
2023-08-16T02:03:55.084Z,100.00
2023-08-16T02:06:23.937Z,100.00
2023-08-16T02:08:52.201Z,100.00
2023-08-16T02:11:21.109Z,100.00
2023-08-16T02:13:48.487Z,100.00
2023-08-16T02:16:15.859Z,100.00
2023-08-16T02:18:44.232Z,100.00
2023-08-16T02:21:13.051Z,100.00
2023-08-16T02:23:40.331Z,100.00
2023-08-16T02:26:07.890Z,100.00
2023-08-16T02:28:35.083Z,100.00
2023-08-16T02:31:06.677Z,100.00
2023-08-16T02:33:37.304Z,100.00
2023-08-16T02:36:05.455Z,100.00
2023-08-16T02:38:32.799Z,100.00
2023-08-16T02:41:01.960Z,100.00
2023-08-16T02:43:29.428Z,100.00
2023-08-16T02:45:56.713Z,100.00
2023-08-16T02:48:23.977Z,100.00
2023-08-16T02:50:51.231Z,100.00
2023-08-16T02:53:18.607Z,100.00
2023-08-16T02:55:45.826Z,100.00
2023-08-16T02:58:13.934Z,100.00
2023-08-16T03:00:41.275Z,100.00
2023-08-16T03:03:08.634Z,100.00
2023-08-16T03:05:35.841Z,100.00
2023-08-16T03:08:03.234Z,100.00
2023-08-16T03:10:30.471Z,100.00
2023-08-16T03:12:57.812Z,100.00
2023-08-16T03:15:25.079Z,100.00
2023-08-16T03:17:52.601Z,100.00
2023-08-16T03:20:19.857Z,100.00
2023-08-16T03:22:47.069Z,100.00
2023-08-16T03:25:18.323Z,100.00
2023-08-16T03:27:45.637Z,100.00
2023-08-16T03:30:13.235Z,100.00
2023-08-16T03:32:42.941Z,100.00
2023-08-16T03:35:10.485Z,100.00
2023-08-16T03:37:38.327Z,100.00
2023-08-16T03:40:07.644Z,100.00
2023-08-16T03:42:35.124Z,100.00
2023-08-16T03:45:02.570Z,100.00
2023-08-16T03:47:31.359Z,100.00
2023-08-16T03:50:00.891Z,100.00
2023-08-16T03:52:28.404Z,100.00
2023-08-16T03:54:55.626Z,100.00
2023-08-16T03:57:24.293Z,100.00
2023-08-16T03:59:53.868Z,100.00
2023-08-16T04:02:23.028Z,100.00
2023-08-16T04:04:54.885Z,100.00
2023-08-16T04:07:23.134Z,100.00
2023-08-16T04:09:50.596Z,100.00
2023-08-16T04:12:18.099Z,100.00
2023-08-16T04:14:45.304Z,100.00
2023-08-16T04:17:12.556Z,100.00
2023-08-16T04:19:40.080Z,100.00
2023-08-16T04:22:07.296Z,100.00
2023-08-16T04:24:35.525Z,100.00
2023-08-16T04:27:02.941Z,100.00
2023-08-16T04:29:30.399Z,100.00
2023-08-16T04:31:58.272Z,100.00
2023-08-16T04:34:25.587Z,100.00
2023-08-16T04:36:52.979Z,100.00
2023-08-16T04:39:21.850Z,100.00
2023-08-16T04:41:49.638Z,100.00
2023-08-16T04:44:18.022Z,100.00
2023-08-16T04:46:45.288Z,100.00
2023-08-16T04:49:12.691Z,100.00
2023-08-16T04:51:40.173Z,100.00
2023-08-16T04:54:08.889Z,100.00
2023-08-16T04:56:36.201Z,100.00
2023-08-16T04:59:03.624Z,100.00
2023-08-16T05:01:30.997Z,100.00
2023-08-16T05:04:01.163Z,100.00
2023-08-16T05:06:28.740Z,100.00
2023-08-16T05:08:56.193Z,100.00
2023-08-16T05:11:23.748Z,99.66
2023-08-16T05:13:51.611Z,95.13
2023-08-16T05:16:19.900Z,92.24
2023-08-16T05:18:48.428Z,90.82
2023-08-16T05:21:16.808Z,90.00
2023-08-16T05:23:44.238Z,83.87
2023-08-16T05:26:11.738Z,78.71
2023-08-16T05:28:38.962Z,79.39
2023-08-16T05:31:13.312Z,76.48
2023-08-16T05:33:41.097Z,72.58
2023-08-16T05:36:09.174Z,69.59
2023-08-16T05:38:36.618Z,66.30
2023-08-16T05:41:07.048Z,61.35
2023-08-16T05:43:34.378Z,59.49
2023-08-16T05:46:01.736Z,58.44
2023-08-16T05:48:29.436Z,60.13
2023-08-16T05:50:56.781Z,60.62
2023-08-16T05:53:24.071Z,57.00
2023-08-16T05:55:51.522Z,55.28
2023-08-16T05:58:18.923Z,54.17
2023-08-16T06:00:47.435Z,53.07
2023-08-16T06:03:15.770Z,51.48
2023-08-16T06:05:43.139Z,50.94
2023-08-16T06:08:10.431Z,50.35
2023-08-16T06:10:37.639Z,50.05
2023-08-16T06:13:05.002Z,48.43
2023-08-16T06:15:32.391Z,48.43
2023-08-16T06:17:59.724Z,49.44
2023-08-16T06:20:27.086Z,45.83
2023-08-16T06:22:54.944Z,45.19
2023-08-16T06:25:22.222Z,46.71
2023-08-16T06:27:50.074Z,45.01
2023-08-16T06:30:17.372Z,46.05
2023-08-16T06:32:46.386Z,43.51
2023-08-16T06:35:14.151Z,43.39
2023-08-16T06:37:42.444Z,44.59
2023-08-16T06:40:10.862Z,45.06
2023-08-16T06:42:38.331Z,42.24
2023-08-16T06:45:06.239Z,42.23
2023-08-16T06:47:33.623Z,39.42
2023-08-16T06:50:01.064Z,40.13
2023-08-16T06:52:28.450Z,37.39
2023-08-16T06:54:55.678Z,37.34
2023-08-16T06:57:23.178Z,40.25
2023-08-16T06:59:51.524Z,37.39
2023-08-16T07:02:19.848Z,36.47
2023-08-16T07:04:47.355Z,37.33
2023-08-16T07:07:15.089Z,36.06
2023-08-16T07:09:42.587Z,34.25
2023-08-16T07:12:10.101Z,33.94
2023-08-16T07:14:37.479Z,35.01
2023-08-16T07:17:06.416Z,33.36
2023-08-16T07:19:33.847Z,34.25
2023-08-16T07:22:01.223Z,33.15
2023-08-16T07:24:28.553Z,34.24
2023-08-16T07:26:55.986Z,31.24
2023-08-16T07:29:23.582Z,31.24
2023-08-16T07:31:52.371Z,30.27
2023-08-16T07:34:19.633Z,30.53
2023-08-16T07:36:46.968Z,31.62
2023-08-16T07:39:14.283Z,30.38
2023-08-16T07:41:41.763Z,30.14
2023-08-16T07:44:10.297Z,29.93
2023-08-16T07:46:37.691Z,29.41
2023-08-16T07:49:05.620Z,29.09
2023-08-16T07:51:32.867Z,28.77
2023-08-16T07:54:00.132Z,28.30
2023-08-16T07:56:27.433Z,28.14
2023-08-16T07:58:54.691Z,30.04
2023-08-16T08:01:22.051Z,28.87
2023-08-16T08:03:49.334Z,27.18
2023-08-16T08:06:16.818Z,27.02
2023-08-16T08:08:44.030Z,27.35
2023-08-16T08:11:11.420Z,27.16
2023-08-16T08:13:39.269Z,28.02
2023-08-16T08:16:07.753Z,27.40
2023-08-16T08:18:35.421Z,26.00
2023-08-16T08:21:02.642Z,24.23
2023-08-16T08:23:30.073Z,24.03
2023-08-16T08:25:57.378Z,23.73
2023-08-16T08:28:24.888Z,23.46
2023-08-16T08:30:52.127Z,23.01
2023-08-16T08:33:19.468Z,22.06
2023-08-16T08:35:48.132Z,21.53
2023-08-16T08:38:15.697Z,22.65
2023-08-16T08:40:43.115Z,21.44
2023-08-16T08:43:11.953Z,22.69
2023-08-16T08:45:40.862Z,22.45
2023-08-16T08:48:08.825Z,22.08
2023-08-16T08:50:39.438Z,23.81
2023-08-16T08:53:06.953Z,24.92
2023-08-16T08:55:34.696Z,26.17
2023-08-16T08:58:03.510Z,26.59
2023-08-16T09:00:38.857Z,23.97
2023-08-16T09:03:09.326Z,27.33
2023-08-16T09:05:40.589Z,26.11
2023-08-16T09:08:10.985Z,27.18
2023-08-16T09:10:39.073Z,27.00
2023-08-16T09:13:07.953Z,26.44
2023-08-16T09:15:35.501Z,29.68
2023-08-16T09:18:12.614Z,28.76
2023-08-16T09:20:41.032Z,28.47
2023-08-16T09:23:08.710Z,27.12
2023-08-16T09:25:36.162Z,28.42
2023-08-16T09:28:03.719Z,30.80
2023-08-16T09:30:31.174Z,35.18
2023-08-16T09:32:58.702Z,35.67
2023-08-16T09:35:32.221Z,34.19
2023-08-16T09:38:01.431Z,36.33
2023-08-16T09:40:29.037Z,36.65
2023-08-16T09:43:03.421Z,38.39
2023-08-16T09:45:35.494Z,36.99
2023-08-16T09:48:04.309Z,32.17
2023-08-16T09:50:51.855Z,29.88
2023-08-16T09:53:35.445Z,27.19
2023-08-16T09:56:04.111Z,31.90
2023-08-16T09:58:33.460Z,35.60
2023-08-16T10:06:38.008Z,26.23
2023-08-16T10:09:10.494Z,26.69
2023-08-16T10:11:39.320Z,27.94
2023-08-16T10:14:08.230Z,27.79
2023-08-16T10:16:37.462Z,28.57
2023-08-16T10:19:05.747Z,27.75
2023-08-16T10:21:39.248Z,24.07
2023-08-16T10:24:10.633Z,24.67
2023-08-16T10:26:39.525Z,22.77
2023-08-16T10:31:48.261Z,25.87
2023-08-16T10:34:16.596Z,28.27
2023-08-16T10:36:44.212Z,26.05
2023-08-16T10:39:25.445Z,25.66
2023-08-16T10:42:07.366Z,26.17
2023-08-16T10:44:34.911Z,27.82
2023-08-16T10:47:02.379Z,26.28
2023-08-16T10:49:41.247Z,26.39
2023-08-16T10:52:08.488Z,30.64
2023-08-16T10:54:36.590Z,28.75
2023-08-16T10:57:09.169Z,28.77
2023-08-16T10:59:40.564Z,33.93
2023-08-16T11:02:17.503Z,33.99
2023-08-16T11:04:47.005Z,31.88
2023-08-16T11:07:16.454Z,30.97
2023-08-16T11:09:44.344Z,31.59
2023-08-16T11:12:11.687Z,30.33
2023-08-16T11:14:38.956Z,30.63
2023-08-16T11:17:06.562Z,30.08
2023-08-16T11:19:35.324Z,31.22
2023-08-16T11:22:03.778Z,29.69
2023-08-16T11:24:32.605Z,29.11
2023-08-16T11:26:59.821Z,29.35
2023-08-16T11:29:27.163Z,30.39
2023-08-16T11:31:58.641Z,30.29
2023-08-16T11:34:26.130Z,31.78
2023-08-16T11:36:53.471Z,31.13
2023-08-16T11:39:23.809Z,30.22
2023-08-16T11:41:51.152Z,32.87
2023-08-16T11:44:18.467Z,32.89
2023-08-16T11:46:50.700Z,32.66
2023-08-16T11:49:23.247Z,35.78
2023-08-16T11:51:52.025Z,35.39
2023-08-16T11:54:23.185Z,34.91
2023-08-16T11:56:53.870Z,33.97
2023-08-16T11:59:32.784Z,34.38
2023-08-16T12:02:08.256Z,34.93
2023-08-16T12:04:35.868Z,38.05
2023-08-16T12:07:10.157Z,37.83
2023-08-16T12:09:44.028Z,37.20
2023-08-16T12:12:12.022Z,41.53
2023-08-16T12:14:39.394Z,38.90
2023-08-16T12:17:06.884Z,42.10
2023-08-16T12:19:34.130Z,41.86
2023-08-16T12:22:01.487Z,41.44
2023-08-16T12:24:28.900Z,39.63
2023-08-16T12:26:56.265Z,43.75
2023-08-16T12:29:23.618Z,38.85
2023-08-16T12:31:51.034Z,40.34
2023-08-16T12:34:18.210Z,40.00
2023-08-16T12:36:45.600Z,41.38
2023-08-16T12:39:12.825Z,42.18
2023-08-16T12:41:40.235Z,37.85
2023-08-16T12:44:07.718Z,41.88
2023-08-16T12:46:35.070Z,39.14
2023-08-16T12:49:02.473Z,38.91
2023-08-16T12:51:29.795Z,39.13
2023-08-16T12:53:57.052Z,39.73
2023-08-16T12:56:24.422Z,41.56
2023-08-16T13:01:21.812Z,41.73
2023-08-16T13:08:50.437Z,39.96
2023-08-16T13:13:49.362Z,37.79
2023-08-16T13:16:30.357Z,37.54
2023-08-16T13:24:37.310Z,41.06
2023-08-16T13:27:03.189Z,38.99
2023-08-16T13:29:42.286Z,40.32
2023-08-16T13:40:02.013Z,44.77
2023-08-16T13:47:31.249Z,46.09
2023-08-16T13:49:58.734Z,49.54
2023-08-16T13:52:26.617Z,53.29
2023-08-16T13:54:54.196Z,51.14
2023-08-16T13:57:22.306Z,53.80
2023-08-16T13:59:49.794Z,52.68
2023-08-16T14:02:17.284Z,55.22
2023-08-16T14:04:44.498Z,54.54
2023-08-16T14:07:11.854Z,56.52
2023-08-16T14:09:39.148Z,57.03
2023-08-16T14:12:07.133Z,56.56
2023-08-16T14:14:34.349Z,56.20
2023-08-16T14:17:01.687Z,55.66
2023-08-16T14:19:29.206Z,57.66
2023-08-16T14:21:58.309Z,56.96
2023-08-16T14:24:26.815Z,57.63
2023-08-16T14:26:54.267Z,57.42
2023-08-16T14:29:21.646Z,56.57
2023-08-16T14:31:48.976Z,57.24
2023-08-16T14:34:16.382Z,54.16
2023-08-16T14:36:44.545Z,57.03
2023-08-16T14:39:12.162Z,56.63
2023-08-16T14:41:39.492Z,55.03
2023-08-16T14:44:07.069Z,56.66
2023-08-16T14:46:34.472Z,56.15
2023-08-16T14:49:01.879Z,57.83
2023-08-16T14:51:31.021Z,56.27
2023-08-16T14:53:58.612Z,58.81
2023-08-16T14:56:26.010Z,58.99
2023-08-16T14:58:53.299Z,58.27
2023-08-16T15:01:20.689Z,61.63
2023-08-16T15:03:48.122Z,61.49
2023-08-16T15:06:15.483Z,62.13
2023-08-16T15:08:42.812Z,59.07
2023-08-16T15:11:20.698Z,60.24
2023-08-16T15:13:48.103Z,62.77
2023-08-16T15:16:15.688Z,62.50
2023-08-16T15:18:43.080Z,61.86
2023-08-16T15:21:10.408Z,60.58
2023-08-16T15:23:38.597Z,63.33
2023-08-16T15:26:07.841Z,62.52
2023-08-16T15:28:37.445Z,61.78
2023-08-16T15:31:06.280Z,61.26
2023-08-16T15:33:35.505Z,62.32
2023-08-16T15:36:02.776Z,60.13
2023-08-16T15:38:46.251Z,60.48
2023-08-16T15:41:14.488Z,58.95
2023-08-16T15:43:44.393Z,59.89
2023-08-16T15:46:14.582Z,60.25
2023-08-16T15:48:42.001Z,58.88
2023-08-16T15:51:09.340Z,59.71
2023-08-16T15:53:36.659Z,56.67
2023-08-16T15:56:04.925Z,57.06
2023-08-16T15:58:32.760Z,59.36
2023-08-16T16:01:04.776Z,62.60
2023-08-16T16:03:32.736Z,62.18
2023-08-16T16:06:00.310Z,61.81
2023-08-16T16:08:30.348Z,60.00
2023-08-16T16:10:58.895Z,60.72
2023-08-16T16:13:26.195Z,59.35
2023-08-16T16:15:54.229Z,64.52
2023-08-16T16:18:23.052Z,60.71
2023-08-16T16:20:50.454Z,62.75
2023-08-16T16:23:17.773Z,65.60
2023-08-16T16:25:45.147Z,65.19
2023-08-16T16:28:12.553Z,64.60
2023-08-16T16:30:39.914Z,66.07
2023-08-16T16:33:07.301Z,63.02
2023-08-16T16:35:38.137Z,64.41
2023-08-16T16:38:08.072Z,64.43
2023-08-16T16:40:35.518Z,65.94
2023-08-16T16:43:02.974Z,69.57
2023-08-16T16:45:30.334Z,69.53
2023-08-16T16:47:57.701Z,67.98
2023-08-16T16:50:25.104Z,69.34
2023-08-16T16:52:52.427Z,68.60
2023-08-16T16:55:19.693Z,67.36
2023-08-16T16:57:47.052Z,68.02
2023-08-16T17:00:14.903Z,69.26
2023-08-16T17:02:42.262Z,68.95
2023-08-16T17:05:10.006Z,71.72
2023-08-16T17:07:37.430Z,69.56
2023-08-16T17:10:05.817Z,69.44
2023-08-16T17:12:33.082Z,70.04
2023-08-16T17:15:02.029Z,70.69
2023-08-16T17:17:29.598Z,70.73
2023-08-16T17:19:57.231Z,69.99
2023-08-16T17:22:24.838Z,69.69
2023-08-16T17:24:52.482Z,70.82
2023-08-16T17:27:19.868Z,68.68
2023-08-16T17:29:47.151Z,71.10
2023-08-16T17:32:14.614Z,76.47
2023-08-16T17:34:41.820Z,80.64
2023-08-16T17:37:09.236Z,81.72
2023-08-16T17:39:36.561Z,82.20
2023-08-16T17:42:04.528Z,81.10
2023-08-16T17:44:31.845Z,82.50
2023-08-16T17:46:59.993Z,85.86
2023-08-16T17:49:27.507Z,86.87
2023-08-16T17:51:54.892Z,86.79
2023-08-16T17:54:22.261Z,87.19
2023-08-16T17:56:49.581Z,88.49
2023-08-16T17:59:16.856Z,88.68
2023-08-16T18:01:44.131Z,89.80
2023-08-16T18:04:11.385Z,87.97
2023-08-16T18:06:38.688Z,86.46
2023-08-16T18:09:06.425Z,87.25
2023-08-16T18:11:34.316Z,84.89
2023-08-16T18:14:02.110Z,85.58
2023-08-16T18:16:29.439Z,86.03
2023-08-16T18:18:56.662Z,88.13
2023-08-16T18:21:24.962Z,88.84
2023-08-16T18:23:52.389Z,88.75
2023-08-16T18:26:19.700Z,89.89
2023-08-16T18:28:47.183Z,91.58
2023-08-16T18:31:15.716Z,92.21
2023-08-16T18:33:44.054Z,93.11
2023-08-16T18:36:12.003Z,93.74
2023-08-16T18:38:39.279Z,94.81
2023-08-16T18:41:07.728Z,96.15
2023-08-16T18:43:35.931Z,94.77
2023-08-16T18:46:03.297Z,96.99
2023-08-16T18:48:30.554Z,97.73
2023-08-16T18:50:59.273Z,95.70
2023-08-16T18:53:26.675Z,92.05
2023-08-16T18:55:54.728Z,92.46
2023-08-16T18:58:22.321Z,93.89
2023-08-16T19:00:55.806Z,95.33
2023-08-16T19:03:23.410Z,91.03
2023-08-16T19:05:50.825Z,87.62
2023-08-16T19:08:20.314Z,83.12
2023-08-16T19:10:49.762Z,84.66
2023-08-16T19:13:17.250Z,81.02
2023-08-16T19:15:44.544Z,78.06
2023-08-16T19:18:13.573Z,76.46
2023-08-16T19:20:41.029Z,77.27
2023-08-16T19:23:08.519Z,77.76
2023-08-16T19:25:35.836Z,77.83
2023-08-16T19:28:03.398Z,76.71
2023-08-16T19:30:30.721Z,79.39
2023-08-16T19:32:58.473Z,76.52
2023-08-16T19:35:28.079Z,76.70
2023-08-16T19:37:55.409Z,75.60
2023-08-16T19:40:23.716Z,80.68
2023-08-16T19:42:51.164Z,80.01
2023-08-16T19:45:18.524Z,81.51
2023-08-16T19:47:45.886Z,82.43
2023-08-16T19:50:20.896Z,83.57
2023-08-16T19:52:54.029Z,80.45
2023-08-16T19:55:22.282Z,79.16
2023-08-16T19:57:51.567Z,78.19
2023-08-16T20:00:21.628Z,78.47
2023-08-16T20:02:50.837Z,77.25
2023-08-16T20:05:18.321Z,80.29
2023-08-16T20:07:46.199Z,80.05
2023-08-16T20:10:14.185Z,79.72
2023-08-16T20:12:42.247Z,77.90
2023-08-16T20:15:11.458Z,83.22
2023-08-16T20:17:39.067Z,82.02
2023-08-16T20:20:11.092Z,80.64
2023-08-16T20:22:38.438Z,86.35
2023-08-16T20:25:07.221Z,88.64
2023-08-16T20:27:34.763Z,87.38
2023-08-16T20:30:01.948Z,85.06
2023-08-16T20:32:29.373Z,81.16
2023-08-16T20:34:59.267Z,81.24
2023-08-16T20:37:28.582Z,83.18
2023-08-16T20:39:56.717Z,83.15
2023-08-16T20:42:36.379Z,82.27
2023-08-16T20:45:08.602Z,84.79
2023-08-16T20:47:37.334Z,85.64
2023-08-16T20:50:05.869Z,86.51
2023-08-16T20:52:33.809Z,87.45
2023-08-16T20:55:03.292Z,87.30
2023-08-16T20:57:30.623Z,89.46
2023-08-16T20:59:58.274Z,90.81
2023-08-16T21:02:25.932Z,89.77
2023-08-16T21:04:53.226Z,88.44
2023-08-16T21:07:20.523Z,91.78
2023-08-16T21:09:48.288Z,91.28
2023-08-16T21:12:15.589Z,93.84
2023-08-16T21:14:46.441Z,91.84
2023-08-16T21:17:14.737Z,90.78
2023-08-16T21:19:42.028Z,89.80
2023-08-16T21:22:09.445Z,91.24
2023-08-16T21:24:36.809Z,90.71
2023-08-16T21:27:04.831Z,90.35
2023-08-16T21:29:34.330Z,90.28
2023-08-16T21:32:02.112Z,93.01
2023-08-16T21:34:29.498Z,91.47
2023-08-16T21:36:57.280Z,92.37
2023-08-16T21:39:24.602Z,90.30
2023-08-16T21:41:51.925Z,89.90
2023-08-16T21:44:20.113Z,89.14
2023-08-16T21:46:47.573Z,89.88
2023-08-16T21:49:15.778Z,88.75
2023-08-16T21:51:43.750Z,88.87
2023-08-16T21:54:11.275Z,89.87
2023-08-16T21:56:38.542Z,92.27
2023-08-16T21:59:05.846Z,92.41
2023-08-16T22:01:33.100Z,93.63
2023-08-16T22:04:00.520Z,92.65
2023-08-16T22:06:27.834Z,93.31
2023-08-16T22:08:55.110Z,93.86
2023-08-16T22:11:22.753Z,93.71
2023-08-16T22:13:50.001Z,93.81
2023-08-16T22:16:17.369Z,95.44
2023-08-16T22:18:44.819Z,95.50
2023-08-16T22:21:12.107Z,95.49
2023-08-16T22:23:39.337Z,97.22
2023-08-16T22:26:07.775Z,96.44
2023-08-16T22:28:35.513Z,97.01
2023-08-16T22:31:02.817Z,99.16
2023-08-16T22:33:30.165Z,99.13
2023-08-16T22:35:57.485Z,100.00
2023-08-16T22:38:25.078Z,100.00
2023-08-16T22:40:52.361Z,100.00
2023-08-16T22:43:19.556Z,100.00
2023-08-16T22:45:46.791Z,100.00
2023-08-16T22:48:15.296Z,100.00
2023-08-16T22:50:42.588Z,100.00
2023-08-16T22:53:09.798Z,100.00
2023-08-16T22:55:37.162Z,100.00
2023-08-16T22:58:04.565Z,100.00
2023-08-16T23:00:32.462Z,100.00
2023-08-16T23:02:59.826Z,100.00
2023-08-16T23:05:27.028Z,100.00
2023-08-16T23:07:54.236Z,100.00
2023-08-16T23:10:21.467Z,100.00
2023-08-16T23:12:48.762Z,100.00
2023-08-16T23:15:16.688Z,100.00
2023-08-16T23:17:44.040Z,100.00
2023-08-16T23:20:12.332Z,100.00
2023-08-16T23:22:41.424Z,100.00
2023-08-16T23:25:10.182Z,100.00
2023-08-16T23:27:38.478Z,100.00
2023-08-16T23:30:07.661Z,100.00
2023-08-16T23:32:35.150Z,100.00
2023-08-16T23:35:03.976Z,100.00
2023-08-16T23:37:32.399Z,100.00
2023-08-16T23:42:27.943Z,100.00
2023-08-16T23:44:55.250Z,100.00
2023-08-16T23:47:22.578Z,100.00
2023-08-16T23:49:49.968Z,100.00
2023-08-16T23:54:44.439Z,100.00
2023-08-16T23:57:11.687Z,100.00
2023-08-16T23:59:41.243Z,100.00
